createdAt,value
2022-12-03T00:03:17.298Z,33.30
2022-12-03T00:08:22.140Z,32.85
2022-12-03T00:13:25.475Z,38.63
2022-12-03T00:18:29.019Z,34.57
2022-12-03T00:23:37.176Z,32.90
2022-12-03T00:28:45.027Z,33.97
2022-12-03T00:33:48.319Z,38.40
2022-12-03T00:38:53.322Z,32.53
2022-12-03T00:43:57.975Z,32.00
2022-12-03T00:49:01.436Z,30.77
2022-12-03T00:54:06.243Z,34.10
2022-12-03T00:59:09.822Z,33.50
2022-12-03T01:04:13.165Z,38.13
2022-12-03T01:09:18.046Z,39.67
2022-12-03T01:14:22.209Z,33.50
2022-12-03T01:19:25.681Z,40.35
2022-12-03T01:24:30.529Z,35.70
2022-12-03T01:29:33.831Z,34.27
2022-12-03T01:34:37.259Z,34.23
2022-12-03T01:39:42.404Z,30.23
2022-12-03T01:44:47.201Z,39.87
2022-12-03T01:49:54.354Z,40.73
2022-12-03T01:55:01.986Z,31.63
2022-12-03T02:00:08.725Z,36.40
2022-12-03T02:05:19.270Z,36.33
2022-12-03T02:10:27.318Z,35.03
2022-12-03T02:15:30.830Z,37.70
2022-12-03T02:20:39.417Z,39.33
2022-12-03T02:25:44.195Z,30.97
2022-12-03T02:30:47.807Z,34.77
2022-12-03T02:35:51.369Z,34.88
2022-12-03T02:41:00.694Z,33.60
2022-12-03T02:46:06.807Z,36.37
2022-12-03T02:51:12.286Z,32.03
2022-12-03T02:56:20.209Z,30.73
2022-12-03T03:01:23.874Z,35.27
2022-12-03T03:06:27.541Z,32.53
2022-12-03T03:11:32.603Z,30.52
2022-12-03T03:16:36.475Z,33.80
2022-12-03T03:21:40.113Z,34.20
2022-12-03T03:26:45.054Z,30.95
2022-12-03T03:31:49.329Z,33.13
2022-12-03T03:36:52.771Z,31.90
2022-12-03T03:41:57.584Z,35.80
2022-12-03T03:47:01.783Z,31.20
2022-12-03T03:57:10.610Z,34.57
2022-12-03T04:02:20.976Z,32.27
2022-12-03T04:07:24.357Z,31.73
2022-12-03T04:12:46.408Z,33.67
2022-12-03T04:18:09.984Z,31.97
2022-12-03T04:23:13.325Z,34.87
2022-12-03T04:28:35.381Z,34.80
2022-12-03T04:33:55.936Z,30.87
2022-12-03T04:38:59.247Z,33.40
2022-12-03T04:44:21.312Z,32.80
2022-12-03T04:49:24.830Z,42.03
2022-12-03T04:54:28.273Z,36.70
2022-12-03T04:59:33.611Z,28.92
2022-12-03T05:04:37.270Z,32.43
2022-12-03T05:09:40.897Z,32.30
2022-12-03T05:14:45.728Z,30.73
2022-12-03T05:20:06.261Z,32.00
2022-12-03T05:25:10.726Z,30.63
2022-12-03T05:30:16.942Z,33.50
2022-12-03T05:35:20.452Z,29.33
2022-12-03T05:40:24.214Z,35.22
2022-12-03T05:45:30.697Z,28.77
2022-12-03T05:50:36.362Z,34.43
2022-12-03T05:55:40.228Z,33.53
2022-12-03T06:00:45.180Z,33.42
2022-12-03T06:05:48.589Z,30.17
2022-12-03T06:10:52.528Z,29.20
2022-12-03T06:15:57.539Z,30.17
2022-12-03T06:21:00.991Z,29.53
2022-12-03T06:26:06.542Z,35.83
2022-12-03T06:31:11.470Z,37.28
2022-12-03T06:36:21.521Z,23.00
2022-12-03T06:41:26.234Z,34.83
2022-12-03T06:46:31.050Z,30.30
2022-12-03T06:51:34.458Z,35.40
2022-12-03T06:56:43.601Z,34.87
2022-12-03T07:01:50.245Z,23.57
2022-12-03T07:06:53.827Z,33.33
2022-12-03T07:11:57.307Z,38.53
2022-12-03T07:17:02.003Z,30.20
2022-12-03T07:22:05.988Z,33.90
2022-12-03T07:27:24.630Z,29.93
2022-12-03T07:32:29.455Z,30.80
2022-12-03T07:37:32.792Z,31.90
2022-12-03T07:42:36.465Z,37.93
2022-12-03T07:47:41.320Z,34.83
2022-12-03T07:52:44.760Z,34.47
2022-12-03T07:57:48.255Z,33.73
2022-12-03T08:02:52.974Z,43.13
2022-12-03T08:07:56.660Z,34.67
2022-12-03T08:13:00.912Z,33.70
2022-12-03T08:18:09.698Z,34.40
2022-12-03T08:23:16.605Z,35.97
2022-12-03T08:28:22.266Z,38.00
2022-12-03T08:33:29.207Z,35.13
2022-12-03T08:38:32.813Z,32.22
2022-12-03T08:43:42.272Z,29.60
2022-12-03T08:48:49.463Z,30.07
2022-12-03T08:54:01.047Z,35.70
2022-12-03T08:59:25.686Z,31.07
2022-12-03T09:04:37.509Z,33.10
2022-12-03T09:09:40.986Z,30.77
2022-12-03T09:14:44.786Z,36.53
2022-12-03T09:19:49.664Z,32.60
2022-12-03T09:24:53.195Z,33.17
2022-12-03T09:29:56.813Z,33.57
2022-12-03T09:35:01.710Z,31.67
2022-12-03T09:40:05.663Z,33.27
2022-12-03T09:45:12.539Z,30.48
2022-12-03T09:50:20.271Z,31.47
2022-12-03T09:55:27.180Z,29.20
2022-12-03T10:00:31.585Z,29.20
2022-12-03T10:05:36.692Z,28.67
2022-12-03T10:10:41.985Z,33.20
2022-12-03T10:15:45.407Z,31.20
2022-12-03T10:20:51.352Z,31.70
2022-12-03T10:25:57.296Z,32.20
2022-12-03T10:31:02.121Z,31.83
2022-12-03T10:36:25.377Z,27.13
2022-12-03T10:41:30.010Z,27.10
2022-12-03T10:46:33.648Z,27.67
2022-12-03T10:51:39.569Z,29.23
2022-12-03T10:56:42.910Z,27.07
2022-12-03T11:01:46.992Z,27.40
2022-12-03T11:06:52.178Z,31.63
2022-12-03T11:11:56.182Z,26.57
2022-12-03T11:17:10.058Z,32.80
2022-12-03T11:22:42.742Z,31.30
2022-12-03T11:28:06.482Z,29.13
2022-12-03T11:33:25.759Z,29.20
2022-12-03T11:38:53.367Z,33.47
2022-12-03T11:44:20.392Z,27.13
2022-12-03T11:49:48.251Z,38.53
2022-12-03T11:54:56.187Z,30.33
2022-12-03T12:00:06.842Z,30.73
2022-12-03T12:05:21.885Z,31.10
2022-12-03T12:10:44.671Z,31.13
2022-12-03T12:15:48.190Z,25.47
2022-12-03T12:20:51.699Z,31.17
2022-12-03T12:26:07.388Z,33.90
2022-12-03T12:31:12.593Z,30.93
2022-12-03T12:36:16.116Z,31.53
2022-12-03T12:41:20.980Z,29.53
2022-12-03T12:46:47.420Z,31.57
2022-12-03T12:51:49.467Z,32.77
2022-12-03T12:56:54.195Z,37.17
2022-12-03T13:07:01.257Z,34.10
2022-12-03T13:12:07.760Z,18.20
2022-12-03T13:17:16.814Z,32.63
2022-12-03T13:22:22.279Z,35.00
2022-12-03T13:27:30.754Z,28.27
2022-12-03T13:32:37.379Z,35.60
2022-12-03T13:37:40.926Z,36.87
2022-12-03T13:42:46.712Z,35.63
2022-12-03T13:47:54.548Z,36.23
2022-12-03T13:52:59.330Z,30.40
2022-12-03T13:58:04.238Z,35.40
2022-12-03T14:03:07.766Z,28.73
2022-12-03T14:08:11.180Z,34.37
2022-12-03T14:13:16.060Z,37.23
2022-12-03T14:18:19.445Z,34.17
2022-12-03T14:23:22.946Z,31.17
2022-12-03T14:28:27.846Z,33.30
2022-12-03T14:33:31.187Z,30.93
2022-12-03T14:38:34.810Z,35.70
2022-12-03T14:43:39.722Z,29.20
2022-12-03T14:48:43.083Z,36.33
2022-12-03T14:53:46.522Z,37.67
2022-12-03T14:58:51.231Z,38.63
2022-12-03T15:08:57.717Z,32.40
2022-12-03T15:14:02.586Z,33.67
2022-12-03T15:19:05.874Z,27.60
2022-12-03T15:24:10.671Z,32.63
2022-12-03T15:29:15.488Z,26.77
2022-12-03T15:34:22.898Z,28.50
2022-12-03T15:39:26.607Z,27.80
2022-12-03T15:44:31.538Z,30.63
2022-12-03T15:49:34.904Z,26.37
2022-12-03T15:54:38.242Z,26.57
2022-12-03T15:59:43.484Z,26.77
2022-12-03T16:04:46.912Z,28.03
2022-12-03T16:09:50.615Z,21.00
2022-12-03T16:14:55.665Z,24.70
2022-12-03T16:19:59.125Z,30.33
2022-12-03T16:25:03.479Z,42.30
2022-12-03T16:30:10.214Z,35.90
2022-12-03T16:35:13.691Z,21.57
2022-12-03T16:40:17.080Z,20.87
2022-12-03T16:45:51.143Z,23.50
2022-12-03T16:50:54.924Z,32.37
2022-12-03T16:55:58.401Z,22.17
2022-12-03T17:01:03.296Z,24.30
2022-12-03T17:06:07.235Z,25.93
2022-12-03T17:11:10.759Z,27.50
2022-12-03T17:16:15.740Z,24.40
2022-12-03T17:21:19.240Z,22.90
2022-12-03T17:26:22.710Z,26.10
2022-12-03T17:31:27.705Z,28.10
2022-12-03T17:36:31.240Z,26.97
2022-12-03T17:41:34.980Z,31.50
2022-12-03T17:46:40.405Z,23.15
2022-12-03T17:51:43.878Z,27.07
2022-12-03T17:56:47.343Z,28.43
2022-12-03T18:01:52.246Z,28.13
2022-12-03T18:07:00.649Z,21.83
2022-12-03T18:12:06.127Z,21.03
2022-12-03T18:17:11.373Z,20.00
2022-12-03T18:22:15.030Z,18.23
2022-12-03T18:27:19.500Z,16.20
2022-12-03T18:32:31.501Z,22.17
2022-12-03T18:37:35.279Z,15.00
2022-12-03T18:42:38.629Z,21.80
2022-12-03T18:47:44.521Z,14.63
2022-12-03T18:52:47.977Z,19.13
2022-12-03T18:57:52.067Z,19.43
2022-12-03T19:03:04.631Z,19.40
2022-12-03T19:08:14.869Z,17.97
2022-12-03T19:13:18.530Z,19.97
2022-12-03T19:18:23.816Z,19.57
2022-12-03T19:23:27.207Z,18.90
2022-12-03T19:28:31.155Z,23.43
2022-12-03T19:33:36.425Z,19.27
2022-12-03T19:38:39.930Z,20.60
2022-12-03T19:43:43.295Z,19.77
2022-12-03T19:48:48.724Z,19.07
2022-12-03T19:53:52.182Z,22.37
2022-12-03T19:58:56.645Z,17.47
2022-12-03T20:04:03.637Z,15.98
2022-12-03T20:09:09.454Z,18.23
2022-12-03T20:14:16.060Z,19.90
2022-12-03T20:19:20.819Z,22.37
2022-12-03T20:24:24.259Z,16.77
2022-12-03T20:29:27.542Z,15.77
2022-12-03T20:34:34.216Z,21.77
2022-12-03T20:39:37.638Z,22.97
2022-12-03T20:44:41.219Z,16.80
2022-12-03T20:49:46.472Z,21.00
2022-12-03T20:54:49.892Z,20.63
2022-12-03T20:59:55.529Z,20.93
2022-12-03T21:05:00.570Z,20.87
2022-12-03T21:10:04.416Z,20.20
2022-12-03T21:15:08.718Z,22.40
2022-12-03T21:20:16.697Z,22.05
2022-12-03T21:25:24.086Z,21.10
2022-12-03T21:30:28.980Z,22.47
2022-12-03T21:35:34.126Z,22.83
2022-12-03T21:40:37.569Z,25.43
2022-12-03T21:45:41.528Z,21.23
2022-12-03T21:50:47.389Z,23.83
2022-12-03T21:55:50.950Z,21.87
2022-12-03T22:00:54.358Z,22.30
2022-12-03T22:05:59.131Z,21.50
2022-12-03T22:11:06.538Z,19.00
2022-12-03T22:16:11.680Z,15.20
2022-12-03T22:21:19.014Z,21.10
2022-12-03T22:26:22.401Z,18.03
2022-12-03T22:31:25.912Z,17.80
2022-12-03T22:36:31.177Z,21.20
2022-12-03T22:41:34.523Z,19.90
2022-12-03T22:46:37.921Z,23.00
2022-12-03T22:51:45.863Z,20.77
2022-12-03T22:56:49.482Z,24.20
2022-12-03T23:01:52.978Z,23.07
2022-12-03T23:06:57.875Z,24.20
2022-12-03T23:12:01.238Z,19.97
2022-12-03T23:17:04.981Z,20.53
2022-12-03T23:22:09.870Z,24.47
2022-12-03T23:27:13.854Z,22.13
2022-12-03T23:32:17.590Z,24.38
2022-12-03T23:37:22.995Z,24.50
2022-12-03T23:42:26.351Z,18.67
2022-12-03T23:47:29.847Z,21.33
2022-12-03T23:52:36.823Z,21.27
2022-12-03T23:57:40.291Z,21.73
